Main page
METAR-TAF:

METAR-TAF

Airports :

Mannheim, Germany

Mannheim City Airport

latitude: 49-28-21N, longitude: 008-30-56E, elevation: 100 m

Current weather observation

The report was made 13 minutes ago, at 21:20 UTC
Wind 7 kt from the South, varying between South/Southeast and Southwest
Temperature 8°C
Humidity 76%
Pressure 1025 hPa
Visibility 10 km or more
Broken clouds at a height of 2700 ft

METAR: EDFM 232120Z 19007KT 150V220 9999 BKN027 08/04 Q1025

Time: 22:33 (21:33 UTC)

Forecast

The report was made 4 hours and 33 minutes ago, at 17:00 UTC
Forecast valid from 23 at 18 UTC to 23 at 21 UTC
Wind 7 kt from the South
Visibility 10 km or more
Broken clouds at a height of 4000 ft

TAF: EDFM 231700Z 2318/2321 18007KT 9999 BKN040

Weather observations and forecasts of more than 4000 airports (METAR and TAF reports).

The available stations are represented by yellow and red dots on the map.

Hover mouse over dot to see the name of the station.

Then click to see weather observations and forecasts.

To change the map : click on the green buttons with a black cross to zoom in, on the green button with a dash to zoom out, or on the green arrows for adjacent maps.


METAR-TAF: